Time;durP1;ratioP1;P1;durP2;ratioP2;P2;SDS_P1;SDS_P2;PMS_P1;PMS_P2;Temp;Humidity;BMP_temperature;BMP_pressure;BME280_temperature;BME280_humidity;BME280_pressure;Samples;Min_cycle;Max_cycle;Signal;HPM_P1;HPM_P2
2022/10/31 00:00:40;;;;;;;32.30;22.38;;;282.30;2278.40;;;;;;5036337;28;20466;-80
2022/10/31 00:03:06;;;;;;;36.20;24.55;;;282.20;2278.40;;;;;;5036156;28;20029;-80
2022/10/31 00:05:32;;;;;;;41.80;29.25;;;282.50;2278.40;;;;;;5035805;28;20025;-79
2022/10/31 00:07:58;;;;;;;46.67;30.98;;;307.20;2304.00;;;;;;5053782;28;20029;-80
2022/10/31 00:10:23;;;;;;;52.33;33.63;;;307.30;2304.00;;;;;;5035733;28;20032;-80
2022/10/31 00:12:49;;;;;;;52.10;35.25;;;307.30;2304.00;;;;;;5035683;28;20028;-79
2022/10/31 00:15:15;;;;;;;53.90;37.92;;;307.40;2304.00;;;;;;5035950;28;20021;-79
2022/10/31 00:17:41;;;;;;;62.85;43.13;;;282.50;2278.40;;;;;;5035967;28;20033;-78
2022/10/31 00:20:07;;;;;;;62.90;42.83;;;307.20;2304.00;;;;;;5053303;28;20083;-79
2022/10/31 00:22:33;;;;;;;52.72;38.10;;;282.50;2278.40;;;;;;5035980;28;20026;-79
2022/10/31 00:24:59;;;;;;;57.33;38.28;;;282.50;2278.40;;;;;;5035844;28;20385;-79
2022/10/31 00:27:24;;;;;;;59.13;40.88;;;282.50;2278.40;;;;;;5053902;28;20086;-79
2022/10/31 00:29:50;;;;;;;59.97;38.30;;;282.50;2278.40;;;;;;5035451;28;20436;-78
2022/10/31 00:32:16;;;;;;;55.42;36.60;;;282.20;2278.40;;;;;;5030609;28;20069;-79
2022/10/31 00:34:42;;;;;;;58.75;40.20;;;282.40;2278.40;;;;;;5047739;28;20026;-77
2022/10/31 00:37:07;;;;;;;93.13;56.35;;;282.30;2278.40;;;;;;5047951;28;20026;-80
2022/10/31 00:39:33;;;;;;;127.22;77.40;;;282.40;2278.40;;;;;;5033554;28;20112;-79
2022/10/31 00:41:59;;;;;;;63.95;41.78;;;282.50;2278.40;;;;;;5049082;28;20021;-80
2022/10/31 00:44:25;;;;;;;72.25;45.58;;;282.00;2278.40;;;;;;5048990;28;20025;-80
2022/10/31 00:46:51;;;;;;;63.83;42.75;;;282.20;2278.40;;;;;;5032060;28;20036;-80
2022/10/31 00:49:16;;;;;;;46.05;32.05;;;281.90;2278.40;;;;;;5048792;28;20033;-79
2022/10/31 00:51:42;;;;;;;41.58;27.92;;;;;;;;;;5048937;28;20065;-80
2022/10/31 00:54:09;;;;;;;35.83;24.98;;;;;;;;;;5031874;28;20514;-80
2022/10/31 00:56:34;;;;;;;35.22;23.27;;;282.10;2278.40;;;;;;5033924;28;20453;-80
2022/10/31 00:59:00;;;;;;;31.52;22.88;;;282.20;2278.40;;;;;;5048908;28;20075;-80
2022/10/31 01:01:26;;;;;;;38.70;24.40;;;281.90;2278.40;;;;;;5048217;28;20120;-79
2022/10/31 01:03:52;;;;;;;30.85;23.10;;;281.80;2278.40;;;;;;5048830;28;20029;-80
2022/10/31 01:06:17;;;;;;;31.27;21.80;;;281.70;2278.40;;;;;;5048924;28;20025;-80
2022/10/31 01:08:43;;;;;;;33.67;23.67;;;256.80;2252.80;;;;;;5051796;28;20029;-81
2022/10/31 01:11:21;;;;;;;38.05;24.30;;;281.70;2278.40;;;;;;5048898;28;20057;-80
2022/10/31 01:13:48;;;;;;;33.25;21.42;;;;;;;;;;5032109;28;20121;-81
2022/10/31 01:16:15;;;;;;;33.97;23.52;;;;;;;;;;5033546;28;20022;-81
2022/10/31 01:18:42;;;;;;;44.13;24.58;;;;;;;;;;5032134;28;20060;-80
2022/10/31 01:21:09;;;;;;;30.73;19.90;;;;;;;;;;5032906;28;20056;-80
2022/10/31 01:23:36;;;;;;;33.05;22.33;;;;;;;;;;5037379;28;20075;-80
2022/10/31 01:26:10;;;;;;;31.65;22.35;;;;;;;;;;5036060;28;20475;-80
2022/10/31 01:28:37;;;;;;;46.92;29.25;;;;;;;;;;5036979;28;20471;-80
2022/10/31 01:31:04;;;;;;;47.85;33.55;;;;;;;;;;5036051;28;20025;-80
2022/10/31 01:33:30;;;;;;;58.63;36.53;;;;;;;;;;5036074;28;20119;-80
2022/10/31 01:35:57;;;;;;;54.10;32.85;;;;;;;;;;5035908;28;20379;-79
2022/10/31 01:38:23;;;;;;;44.85;29.17;;;;;;;;;;5036889;28;20028;-79
2022/10/31 01:40:49;;;;;;;44.30;29.48;;;;;;;;;;5035873;28;20079;-81
2022/10/31 01:43:15;;;;;;;42.22;29.88;;;;;;;;;;5035578;28;20021;-80
2022/10/31 01:45:44;;;;;;;51.65;32.10;;;;;;;;;;5043126;28;20031;-79
2022/10/31 01:48:16;;;;;;;52.58;33.90;;;;;;;;;;5054429;28;20033;-79
2022/10/31 01:50:44;;;;;;;50.90;34.60;;;;;;;;;;5046670;28;20059;-79
2022/10/31 01:53:11;;;;;;;54.28;37.17;;;;;;;;;;5038442;28;20758;-79
2022/10/31 01:55:40;;;;;;;51.38;33.50;;;;;;;;;;5056313;28;20049;-79
2022/10/31 01:58:12;;;;;;;50.80;36.05;;;;;;;;;;5038502;28;20021;-79
2022/10/31 02:00:39;;;;;;;51.85;35.10;;;;;;;;;;5038508;28;20021;-80
2022/10/31 02:03:05;;;;;;;55.55;36.42;;;;;;;;;;5038753;28;20028;-79
2022/10/31 02:05:31;;;;;;;52.30;36.97;;;;;;;;;;5038313;28;20080;-80
2022/10/31 02:08:03;;;;;;;51.40;36.03;;;;;;;;;;5038328;28;20104;-80
2022/10/31 02:10:31;;;;;;;43.65;28.33;;;;;;;;;;5038963;28;20032;-81
2022/10/31 02:12:58;;;;;;;40.97;27.42;;;;;;;;;;5038448;28;20089;-81
2022/10/31 02:15:25;;;;;;;34.60;24.13;;;;;;;;;;5056181;28;20138;-81
2022/10/31 02:17:51;;;;;;;35.08;23.10;;;;;;;;;;5038036;28;20025;-81
2022/10/31 02:20:22;;;;;;;34.47;25.05;;;;;;;;;;5038240;28;20029;-80
2022/10/31 02:23:05;;;;;;;36.05;23.95;;;;;;;;;;5038297;28;20049;-81
2022/10/31 02:25:50;;;;;;;35.63;22.73;;;;;;;;;;5038039;28;20025;-81
2022/10/31 02:28:39;;;;;;;73.10;41.15;;;;;;;;;;5038024;28;20029;-81
2022/10/31 02:31:15;;;;;;;58.55;31.92;;;;;;;;;;5025638;28;20083;-81
2022/10/31 02:33:45;;;;;;;47.65;30.38;;;;;;;;;;5037491;28;20041;-81
2022/10/31 02:36:24;;;;;;;43.58;29.10;;;;;;;;;;5033648;28;20033;-80
2022/10/31 02:39:08;;;;;;;43.85;29.73;;;;;;;;;;5017690;28;20025;-80
2022/10/31 02:41:43;;;;;;;46.75;29.77;;;;;;;;;;5017471;28;20536;-80
2022/10/31 02:44:15;;;;;;;51.03;31.60;;;;;;;;;;5018123;28;20463;-80
2022/10/31 02:46:49;;;;;;;38.97;28.30;;;;;;;;;;5036721;28;20036;-80
2022/10/31 02:49:38;;;;;;;32.67;22.02;;;;;;;;;;5037330;28;20033;-79
2022/10/31 02:52:13;;;;;;;31.52;22.15;;;;;;;;;;5037526;28;20079;-81
2022/10/31 02:54:40;;;;;;;40.70;23.83;;;;;;;;;;5037475;28;20540;-81
2022/10/31 02:57:07;;;;;;;38.28;25.20;;;;;;;;;;5037830;28;20032;-81
2022/10/31 02:59:35;;;;;;;35.10;22.67;;;;;;;;;;5037713;28;20060;-81
2022/10/31 03:02:06;;;;;;;34.92;23.52;;;;;;;;;;5037756;28;20025;-80
2022/10/31 03:04:41;;;;;;;36.47;23.45;;;;;;;;;;5037814;28;20112;-80
2022/10/31 03:07:10;;;;;;;30.15;20.83;;;;;;;;;;5055198;28;20025;-81
2022/10/31 03:09:39;;;;;;;27.92;20.63;;;;;;;;;;5037531;28;20078;-80
2022/10/31 03:12:08;;;;;;;28.52;20.20;;;;;;;;;;5037475;28;20033;-81
2022/10/31 03:15:10;;;;;;;32.22;19.98;;;;;;;;;;5037143;28;20033;-81
2022/10/31 03:17:38;;;;;;;31.95;20.67;;;;;;;;;;4990212;28;20023;-81
2022/10/31 03:20:07;;;;;;;32.42;21.80;;;;;;;;;;5055289;28;20056;-80
2022/10/31 03:22:33;;;;;;;29.75;19.85;;;;;;;;;;5040537;28;20497;-80
2022/10/31 03:25:01;;;;;;;30.85;21.40;;;;;;;;;;5037099;28;20485;-81
2022/10/31 03:27:29;;;;;;;32.25;22.00;;;;;;;;;;5039823;28;20166;-80
2022/10/31 03:29:57;;;;;;;32.67;21.05;;;;;;;;;;5039860;28;20036;-81
2022/10/31 03:32:35;;;;;;;32.60;20.88;;;;;;;;;;5023025;28;20469;-80
2022/10/31 03:35:04;;;;;;;29.77;19.13;;;;;;;;;;5034063;28;20026;-81
2022/10/31 03:37:31;;;;;;;29.00;21.60;;;;;;;;;;5049240;28;20441;-80
2022/10/31 03:39:59;;;;;;;30.95;20.95;;;;;;;;;;5050169;28;20112;-81
2022/10/31 03:42:26;;;;;;;29.98;20.15;;;;;;;;;;5049728;28;20121;-81
2022/10/31 03:44:55;;;;;;;27.63;18.60;;;;;;;;;;5034301;28;20410;-81
2022/10/31 03:47:22;;;;;;;29.98;19.02;;;;;;;;;;5049893;28;20108;-81
2022/10/31 03:49:48;;;;;;;25.83;18.42;;;;;;;;;;5049649;28;20040;-82
2022/10/31 03:52:20;;;;;;;30.83;18.13;;;;;;;;;;5034152;28;20363;-81
2022/10/31 03:54:48;;;;;;;33.03;18.67;;;;;;;;;;5049527;28;20103;-82
2022/10/31 03:57:33;;;;;;;29.95;19.95;;;;;;;;;;5049518;28;20474;-81
2022/10/31 04:00:03;;;;;;;28.90;19.65;;;;;;;;;;5049506;28;20080;-82
2022/10/31 04:02:30;;;;;;;26.23;17.55;;;;;;;;;;5050001;28;20467;-82
2022/10/31 04:04:57;;;;;;;28.63;18.50;;;;;;;;;;5049798;28;20025;-81
2022/10/31 04:07:26;;;;;;;29.15;18.83;;;;;;;;;;5049688;28;20017;-82
2022/10/31 04:09:53;;;;;;;48.13;24.80;;;;;;;;;;5049101;28;20025;-82
2022/10/31 04:12:20;;;;;;;48.13;26.40;;;;;;;;;;5049546;28;20025;-82
2022/10/31 04:14:48;;;;;;;47.63;27.50;;;;;;;;;;5049339;28;20033;-81
2022/10/31 04:17:16;;;;;;;43.30;25.25;;;;;;;;;;5049319;28;20044;-82
2022/10/31 04:19:42;;;;;;;40.58;24.67;;;;;;;;;;5049488;28;20025;-81
2022/10/31 04:22:08;;;;;;;41.38;26.45;;;;;;;;;;5049233;28;20028;-81
2022/10/31 04:24:35;;;;;;;34.40;22.98;;;;;;;;;;5049066;28;20060;-81
2022/10/31 04:27:01;;;;;;;30.88;20.98;;;;;;;;;;5049272;28;20056;-82
2022/10/31 04:29:27;;;;;;;32.33;19.17;;;;;;;;;;5033616;28;20550;-81
2022/10/31 04:31:53;;;;;;;33.40;20.10;;;;;;;;;;5048786;28;20030;-82
2022/10/31 04:34:19;;;;;;;33.58;21.33;;;;;;;;;;5049237;28;20022;-82
2022/10/31 04:36:45;;;;;;;36.40;24.70;;;;;;;;;;5033213;28;20508;-80
2022/10/31 04:39:11;;;;;;;36.80;25.02;;;;;;;;;;5033212;28;20029;-81
2022/10/31 04:41:37;;;;;;;36.05;24.02;;;;;;;;;;5047965;28;20026;-82
2022/10/31 04:44:03;;;;;;;34.22;24.90;;;;;;;;;;5048930;28;20489;-82
2022/10/31 04:46:30;;;;;;;42.05;28.25;;;;;;;;;;5048897;28;20467;-80
2022/10/31 04:48:56;;;;;;;39.90;25.00;;;;;;;;;;5033748;28;20171;-83
2022/10/31 04:51:22;;;;;;;37.28;26.25;;;;;;;;;;5033419;28;20497;-82
2022/10/31 04:53:49;;;;;;;40.05;23.98;;;;;;;;;;5032928;28;20387;-81
2022/10/31 04:56:15;;;;;;;60.33;36.83;;;;;;;;;;5050039;28;20091;-82
2022/10/31 04:58:41;;;;;;;99.45;54.17;;;;;;;;;;5052824;28;20657;-81
2022/10/31 05:01:07;;;;;;;127.88;79.97;;;;;;;;;;5037767;28;20041;-81
2022/10/31 05:03:33;;;;;;;114.80;72.90;;;;;;;;;;5052913;28;20116;-81
2022/10/31 05:05:59;;;;;;;111.63;69.05;;;;;;;;;;5052892;28;20021;-82
2022/10/31 05:08:25;;;;;;;94.45;63.30;;;;;;;;;;5053166;28;20103;-80
2022/10/31 05:10:51;;;;;;;94.55;62.88;;;;;;;;;;5037371;28;20104;-80
2022/10/31 05:13:18;;;;;;;54.45;36.33;;;;;;;;;;5052665;28;20053;-81
2022/10/31 05:15:44;;;;;;;64.50;44.00;;;;;;;;;;5053082;28;20021;-81
2022/10/31 05:18:10;;;;;;;85.35;55.05;;;;;;;;;;5052707;28;20351;-82
2022/10/31 05:20:36;;;;;;;97.95;60.92;;;;;;;;;;5052317;28;20028;-82
2022/10/31 05:23:02;;;;;;;84.32;57.47;;;;;;;;;;5052790;28;20483;-83
2022/10/31 05:25:29;;;;;;;82.68;56.53;;;;;;;;;;5052900;28;20471;-82
2022/10/31 05:27:55;;;;;;;70.13;49.42;;;;;;;;;;5052432;28;20025;-83
2022/10/31 05:30:27;;;;;;;59.50;42.50;;;;;;;;;;5052741;28;20029;-82
2022/10/31 05:32:53;;;;;;;44.33;31.17;;;;;;;;;;5053024;28;20140;-82
2022/10/31 05:35:21;;;;;;;43.38;30.40;;;;;;;;;;5055424;28;20022;-83
2022/10/31 05:37:47;;;;;;;57.97;38.67;;;;;;;;;;5052938;28;20032;-83
2022/10/31 05:40:14;;;;;;;53.72;34.08;;;;;;;;;;5037366;28;20026;-83
2022/10/31 05:42:40;;;;;;;48.65;33.00;;;;;;;;;;5037036;28;20025;-83
2022/10/31 05:45:07;;;;;;;49.78;34.03;;;;;;;;;;5052794;28;20021;-82
2022/10/31 05:47:33;;;;;;;45.33;31.00;;;;;;;;;;5052246;28;20036;-83
2022/10/31 05:50:00;;;;;;;50.30;34.53;;;;;;;;;;5052374;28;20159;-83
2022/10/31 05:52:26;;;;;;;47.80;30.80;;;;;;;;;;5036737;28;20494;-83
2022/10/31 05:54:52;;;;;;;42.05;29.88;;;;;;;;;;5051904;28;20053;-83
2022/10/31 05:57:18;;;;;;;34.03;25.33;;;;;;;;;;5052539;28;20083;-83
2022/10/31 05:59:44;;;;;;;42.03;25.88;;;;;;;;;;5052354;28;20030;-83
2022/10/31 06:02:10;;;;;;;43.92;25.95;;;;;;;;;;5051926;28;20079;-83
2022/10/31 06:04:36;;;;;;;39.75;25.52;;;;;;;;;;5052414;28;20029;-82
2022/10/31 06:07:02;;;;;;;48.15;29.67;;;;;;;;;;5051871;28;20025;-82
2022/10/31 06:09:28;;;;;;;47.72;29.95;;;;;;;;;;5058756;28;20025;-82
2022/10/31 06:11:54;;;;;;;50.33;30.30;;;;;;;;;;5070051;28;20029;-81
2022/10/31 06:14:21;;;;;;;45.28;28.92;;;;;;;;;;5060885;28;20124;-83
2022/10/31 06:16:47;;;;;;;43.38;28.00;;;;;;;;;;5051598;28;20055;-81
2022/10/31 06:19:13;;;;;;;53.47;29.42;;;;;;;;;;5051959;28;20029;-80
2022/10/31 06:21:39;;;;;;;43.47;29.50;;;;;;;;;;5051910;28;20021;-81
2022/10/31 06:24:05;;;;;;;45.65;30.48;;;;;;;;;;5051170;28;20025;-82
2022/10/31 06:26:31;;;;;;;53.90;34.47;;;;;;;;;;5036340;28;20030;-81
2022/10/31 06:28:57;;;;;;;129.38;80.38;;;;;;;;;;5051195;28;20067;-82
2022/10/31 06:31:23;;;;;;;62.67;44.30;;;231.10;2252.80;;;;;;5053425;28;20025;-83
2022/10/31 06:33:49;;;;;;;46.63;31.88;;;230.90;2252.80;;;;;;5071295;28;20186;-82
2022/10/31 06:36:15;;;;;;;43.35;30.20;;;230.90;2252.80;;;;;;5070121;28;20036;-83
2022/10/31 06:38:40;;;;;;;45.60;26.50;;;231.20;2252.80;;;;;;5071142;28;20445;-84
2022/10/31 06:41:06;;;;;;;38.67;25.67;;;231.30;2252.80;;;;;;5071340;28;20086;-83
2022/10/31 06:43:33;;;;;;;44.83;28.35;;;256.10;2252.80;;;;;;5055841;28;20024;-83
2022/10/31 06:46:03;;;;;;;46.03;28.42;;;256.20;2252.80;;;;;;5071214;28;20039;-83
2022/10/31 06:48:28;;;;;;;38.70;26.13;;;256.20;2252.80;;;;;;5055923;28;20029;-82
2022/10/31 06:50:58;;;;;;;46.22;28.05;;;256.20;2252.80;;;;;;5071009;28;20052;-82
2022/10/31 06:53:24;;;;;;;46.70;26.45;;;256.10;2252.80;;;;;;5056040;28;20060;-82
2022/10/31 06:55:50;;;;;;;39.72;28.77;;;231.30;2252.80;;;;;;5071248;28;20049;-82
2022/10/31 06:58:16;;;;;;;43.45;28.88;;;231.20;2252.80;;;;;;5071078;28;20021;-82
2022/10/31 07:00:41;;;;;;;48.97;29.95;;;231.30;2252.80;;;;;;5071223;28;20091;-82
2022/10/31 07:03:11;;;;;;;43.53;26.00;;;256.10;2252.80;;;;;;5071331;28;20064;-82
2022/10/31 07:05:37;;;;;;;44.50;25.23;;;256.20;2252.80;;;;;;5037444;28;20021;-82
2022/10/31 07:08:05;;;;;;;41.90;27.35;;;256.60;2252.80;;;;;;5037670;28;20500;-82
2022/10/31 07:10:32;;;;;;;47.10;24.13;;;;;;;;;;5055118;28;20525;-83
2022/10/31 07:12:59;;;;;;;40.75;25.13;;;;;;;;;;5037196;28;20024;-83
2022/10/31 07:15:26;;;;;;;41.95;25.70;;;;;;;;;;5037668;28;20027;-82
2022/10/31 07:17:53;;;;;;;37.35;25.33;;;;;;;;;;5037396;28;20498;-82
2022/10/31 07:20:19;;;;;;;43.40;25.65;;;;;;;;;;5054281;28;20029;-82
2022/10/31 07:22:45;;;;;;;51.13;26.27;;;;;;;;;;5037654;28;20059;-81
2022/10/31 07:25:11;;;;;;;41.83;25.98;;;;;;;;;;5037621;28;20032;-81
2022/10/31 07:27:38;;;;;;;42.33;25.90;;;;;;;;;;5037165;28;20374;-82
2022/10/31 07:30:05;;;;;;;50.17;25.08;;;;;;;;;;5036977;28;20028;-82
2022/10/31 07:32:38;;;;;;;32.20;23.05;;;;;;;;;;5036989;28;20025;-81
2022/10/31 07:35:05;;;;;;;30.90;23.73;;;;;;;;;;5055341;28;20025;-82
2022/10/31 07:37:31;;;;;;;31.05;21.67;;;;;;;;;;5023950;28;20052;-81
2022/10/31 07:39:57;;;;;;;31.40;21.00;;;;;;;;;;5059706;28;20037;-78
2022/10/31 07:42:23;;;;;;;32.30;20.40;;;;;;;;;;5053029;28;20024;-79
2022/10/31 07:44:49;;;;;;;31.83;21.38;;;;;;;;;;5033555;28;20021;-77
2022/10/31 07:47:15;;;;;;;36.22;22.40;;;;;;;;;;5050397;28;20072;-80
2022/10/31 07:49:41;;;;;;;36.25;21.60;;;;;;;;;;5035474;28;20029;-76
2022/10/31 07:52:07;;;;;;;32.70;22.77;;;;;;;;;;5053639;28;20098;-79
2022/10/31 07:54:33;;;;;;;35.15;23.67;;;;;;;;;;5035903;28;20045;-77
2022/10/31 07:56:59;;;;;;;58.10;34.10;;;;;;;;;;5036479;28;20374;-77
2022/10/31 07:59:27;;;;;;;43.95;26.52;;;;;;;;;;5053815;28;20036;-79
2022/10/31 08:01:53;;;;;;;40.95;29.15;;;;;;;;;;5053479;28;20009;-79
2022/10/31 08:04:19;;;;;;;46.35;31.30;;;;;;;;;;5036276;28;20048;-78
2022/10/31 08:06:48;;;;;;;37.92;25.95;;;;;;;;;;5035872;28;20048;-77
2022/10/31 08:09:14;;;;;;;33.20;25.00;;;;;;;;;;5035169;28;20056;-77
2022/10/31 08:11:40;;;;;;;33.60;23.05;;;333.00;2329.60;;;;;;5035438;28;20025;-77
2022/10/31 08:14:05;;;;;;;33.88;23.58;;;332.90;2329.60;;;;;;5035707;28;20025;-79
2022/10/31 08:16:32;;;;;;;30.25;20.58;;;;;;;;;;5035879;28;20029;-78
2022/10/31 08:18:58;;;;;;;32.08;21.05;;;;;;;;;;5036191;28;20111;-79
2022/10/31 08:21:24;;;;;;;33.33;22.67;;;;;;;;;;5035686;28;20029;-79
2022/10/31 08:23:50;;;;;;;32.30;23.05;;;;;;;;;;5035768;28;20079;-79
2022/10/31 08:26:16;;;;;;;28.27;21.73;;;;;;;;;;5053707;28;20520;-79
2022/10/31 08:28:42;;;;;;;33.33;22.73;;;;;;;;;;5035018;28;20099;-79
2022/10/31 08:31:09;;;;;;;38.70;28.08;;;;;;;;;;5052164;28;20100;-78
2022/10/31 08:33:36;;;;;;;31.58;22.30;;;;;;;;;;5035784;28;20017;-80
2022/10/31 08:36:02;;;;;;;33.55;23.05;;;;;;;;;;5034304;28;20104;-80
2022/10/31 08:38:28;;;;;;;39.75;28.40;;;;;;;;;;5035862;28;20048;-81
2022/10/31 08:40:54;;;;;;;47.10;29.95;;;;;;;;;;5035743;28;20032;-81
2022/10/31 08:43:20;;;;;;;36.33;26.33;;;;;;;;;;5052967;28;20071;-80
2022/10/31 08:45:49;;;;;;;35.22;23.95;;;;;;;;;;5035462;28;20021;-80
2022/10/31 08:48:15;;;;;;;31.17;24.85;;;;;;;;;;5035522;28;20044;-81
2022/10/31 08:50:42;;;;;;;33.92;25.10;;;;;;;;;;5035283;28;20474;-81
2022/10/31 08:53:12;;;;;;;32.17;22.70;;;;;;;;;;5035765;28;20056;-81
2022/10/31 08:55:39;;;;;;;33.83;24.85;;;;;;;;;;5035442;28;20482;-78
2022/10/31 08:58:07;;;;;;;40.25;26.92;;;;;;;;;;5035225;28;20025;-81
2022/10/31 09:00:34;;;;;;;46.08;35.15;;;;;;;;;;5035393;28;20029;-80
2022/10/31 09:03:00;;;;;;;47.92;35.75;;;;;;;;;;5053065;28;20021;-80
2022/10/31 09:05:27;;;;;;;41.63;28.55;;;;;;;;;;5035064;28;20034;-81
2022/10/31 09:07:57;;;;;;;38.65;28.23;;;;;;;;;;5052179;28;20501;-80
2022/10/31 09:10:23;;;;;;;38.90;27.77;;;;;;;;;;5035313;28;20071;-81
2022/10/31 09:12:55;;;;;;;28.30;24.13;;;;;;;;;;5035249;28;20482;-80
2022/10/31 09:15:21;;;;;;;31.83;24.58;;;;;;;;;;5035477;28;20075;-80
2022/10/31 09:17:48;;;;;;;35.25;22.80;;;;;;;;;;5035366;28;20120;-80
2022/10/31 09:20:14;;;;;;;31.30;23.02;;;;;;;;;;5035405;28;20035;-80
2022/10/31 09:22:40;;;;;;;33.40;25.08;;;;;;;;;;5052744;28;20025;-81
2022/10/31 09:25:06;;;;;;;43.20;25.77;;;;;;;;;;5034655;28;20053;-81
2022/10/31 09:27:32;;;;;;;36.95;26.30;;;;;;;;;;5035256;28;20024;-80
2022/10/31 09:29:59;;;;;;;34.67;23.30;;;;;;;;;;5035304;28;20029;-80
2022/10/31 09:32:25;;;;;;;29.92;22.10;;;;;;;;;;5023902;28;20041;-81
2022/10/31 09:34:51;;;;;;;24.88;19.63;;;;;;;;;;5048665;28;20025;-80
2022/10/31 09:37:17;;;;;;;21.58;19.15;;;;;;;;;;5031929;28;20383;-80
2022/10/31 09:39:43;;;;;;;21.83;18.15;;;;;;;;;;5048279;28;20033;-80
2022/10/31 09:42:18;;;;;;;24.35;18.60;;;;;;;;;;5050065;28;20018;-80
2022/10/31 09:44:53;;;;;;;26.95;20.95;;;;;;;;;;5055553;28;20017;-81
2022/10/31 09:47:35;;;;;;;31.35;20.85;;;;;;;;;;5038532;28;20421;-81
2022/10/31 09:50:18;;;;;;;25.90;19.30;;;;;;;;;;5037786;28;20021;-81
2022/10/31 09:52:52;;;;;;;25.05;19.63;;;;;;;;;;5038712;28;20025;-80
2022/10/31 09:55:21;;;;;;;32.72;19.25;;;;;;;;;;5035195;28;20056;-80
2022/10/31 09:57:48;;;;;;;24.52;18.17;;;;;;;;;;5035717;28;20022;-80
2022/10/31 10:00:18;;;;;;;26.55;18.73;;;;;;;;;;5036264;28;20033;-80
2022/10/31 10:02:50;;;;;;;25.42;17.80;;;;;;;;;;5035473;28;20034;-80
2022/10/31 10:05:22;;;;;;;24.60;17.30;;;;;;;;;;5035318;28;20025;-81
2022/10/31 10:07:48;;;;;;;;;;;;;;;;;;5035388;28;20036;-81
2022/10/31 10:10:16;;;;;;;24.27;16.27;;;;;;;;;;5036562;28;19913;-80
2022/10/31 10:12:45;;;;;;;21.42;16.95;;;;;;;;;;5035467;28;20017;-80
2022/10/31 10:15:37;;;;;;;24.33;15.35;;;;;;;;;;5034977;28;20180;-80
2022/10/31 10:18:10;;;;;;;19.35;15.77;;;;;;;;;;5035376;28;20528;-81
2022/10/31 10:20:36;;;;;;;20.65;14.30;;;;;;;;;;5037757;28;20112;-80
2022/10/31 10:23:11;;;;;;;18.73;13.23;;;;;;;;;;5052821;28;20032;-81
2022/10/31 10:25:40;;;;;;;20.83;15.55;;;;;;;;;;5052355;28;20032;-80
2022/10/31 10:28:12;;;;;;;21.98;13.60;;;;;;;;;;5037326;28;20022;-80
2022/10/31 10:30:45;;;;;;;24.65;15.07;;;;;;;;;;5034868;28;20040;-80
2022/10/31 10:33:33;;;;;;;20.75;13.80;;;;;;;;;;5035097;28;20164;-80
2022/10/31 10:36:01;;;;;;;22.88;14.15;;;;;;;;;;5035595;28;20025;-80
2022/10/31 10:38:35;;;;;;;23.42;13.98;;;;;;;;;;5035887;28;20072;-80
2022/10/31 10:41:02;;;;;;;19.58;13.18;;;;;;;;;;5036037;28;20029;-80
2022/10/31 10:43:35;;;;;;;20.08;14.70;;;;;;;;;;5035639;28;20032;-80
2022/10/31 10:49:08;;;;;;;19.33;14.65;;;;;;;;;;5035155;28;20571;-80
2022/10/31 10:51:54;;;;;;;18.48;14.68;;;;;;;;;;5034091;28;20033;-80
2022/10/31 10:54:27;;;;;;;19.50;14.27;;;;;;;;;;5033719;28;20099;-80
2022/10/31 10:57:08;;;;;;;18.15;12.88;;;;;;;;;;5033801;28;20022;-78
2022/10/31 10:59:35;;;;;;;18.48;13.25;;;;;;;;;;5034235;28;20033;-78
2022/10/31 11:02:01;;;;;;;21.80;13.07;;;;;;;;;;5035163;28;20028;-78
2022/10/31 11:04:27;;;;;;;20.92;13.00;;;;;;;;;;5033526;28;20510;-78
2022/10/31 11:07:01;;;;;;;20.25;13.18;;;512.60;2380.80;;;;;;5033916;28;20017;-79
2022/10/31 11:09:28;;;;;;;14.45;12.07;;;;;;;;;;5033492;28;20117;-78
2022/10/31 11:11:54;;;;;;;16.83;12.50;;;;;;;;;;5033402;28;20028;-79
2022/10/31 11:14:21;;;;;;;18.52;13.18;;;;;;;;;;5033688;28;20021;-78
2022/10/31 11:16:48;;;;;;;15.57;11.82;;;;;;;;;;5034723;28;20033;-79
2022/10/31 11:19:19;;;;;;;17.60;12.05;;;;;;;;;;5033622;28;20083;-78
2022/10/31 11:21:46;;;;;;;18.20;12.98;;;;;;;;;;5033702;28;20116;-79
2022/10/31 11:24:17;;;;;;;19.70;13.13;;;;;;;;;;5035254;28;20028;-80
2022/10/31 11:26:44;;;;;;;16.88;12.88;;;;;;;;;;5035422;28;20025;-79
2022/10/31 11:29:30;;;;;;;15.27;11.68;;;;;;;;;;5034517;28;20025;-79
2022/10/31 11:31:58;;;;;;;17.13;14.05;;;;;;;;;;5033860;28;20030;-80
2022/10/31 11:34:27;;;;;;;19.25;13.20;;;;;;;;;;5033235;28;20057;-79
2022/10/31 11:36:53;;;;;;;18.83;12.93;;;;;;;;;;5023926;28;20079;-80
2022/10/31 11:39:24;;;;;;;22.65;12.68;;;;;;;;;;5015489;28;20101;-80
2022/10/31 11:41:51;;;;;;;17.60;13.07;;;;;;;;;;5013644;28;20022;-80
2022/10/31 11:44:19;;;;;;;18.60;13.60;;;;;;;;;;5021263;28;20026;-80
2022/10/31 11:46:48;;;;;;;18.77;13.75;;;;;;;;;;5015348;28;20080;-80
2022/10/31 11:49:16;;;;;;;18.50;12.68;;;;;;;;;;5012967;28;20030;-80
2022/10/31 11:51:42;;;;;;;18.17;12.68;;;;;;;;;;5012665;28;20087;-80
2022/10/31 11:54:18;;;;;;;22.80;14.00;;;;;;;;;;5015389;28;20152;-80
2022/10/31 11:56:45;;;;;;;22.95;12.60;;;;;;;;;;5049378;28;20390;-80
2022/10/31 11:59:30;;;;;;;19.88;11.73;;;;;;;;;;5034147;28;20479;-80
2022/10/31 12:02:00;;;;;;;18.20;12.50;;;;;;;;;;5049553;28;20049;-80
2022/10/31 12:04:39;;;;;;;18.17;13.30;;;;;;;;;;5049233;28;20049;-80
2022/10/31 12:07:05;;;;;;;16.88;12.75;;;;;;;;;;5034274;28;20018;-80
2022/10/31 12:09:36;;;;;;;18.67;12.50;;;;;;;;;;5036205;28;20052;-80
2022/10/31 12:12:11;;;;;;;17.77;13.32;;;;;;;;;;5050095;28;20028;-80
2022/10/31 12:14:38;;;;;;;17.88;13.23;;;;;;;;;;5049277;28;20036;-80
2022/10/31 12:17:10;;;;;;;16.75;12.13;;;;;;;;;;5048972;28;20483;-80
2022/10/31 12:19:46;;;;;;;15.88;11.55;;;;;;;;;;5049327;28;20395;-81
2022/10/31 12:22:30;;;;;;;19.23;13.65;;;;;;;;;;5048863;28;20040;-80
2022/10/31 12:25:08;;;;;;;18.58;11.98;;;;;;;;;;5048986;28;20467;-80
2022/10/31 12:27:54;;;;;;;19.63;13.18;;;;;;;;;;5049309;28;20032;-80
2022/10/31 12:30:36;;;;;;;17.58;12.65;;;;;;;;;;5048929;28;20111;-80
2022/10/31 12:33:18;;;;;;;25.92;14.07;;;;;;;;;;5033733;28;20550;-79
2022/10/31 12:35:47;;;;;;;18.25;12.50;;;;;;;;;;5049440;28;20067;-79
2022/10/31 12:38:21;;;;;;;19.73;13.70;;;;;;;;;;5033599;28;20023;-80
2022/10/31 12:41:07;;;;;;;18.70;12.10;;;;;;;;;;5049261;28;20027;-80
2022/10/31 12:43:36;;;;;;;18.80;12.38;;;;;;;;;;5049231;28;20025;-79
2022/10/31 12:46:05;;;;;;;22.08;12.77;;;;;;;;;;5048405;28;20036;-80
2022/10/31 12:48:34;;;;;;;22.08;14.80;;;;;;;;;;5033529;28;20021;-79
2022/10/31 12:51:03;;;;;;;17.63;12.90;;;;;;;;;;5047437;28;20068;-79
2022/10/31 12:53:29;;;;;;;18.05;10.23;;;;;;;;;;5033596;28;20025;-80
2022/10/31 12:55:55;;;;;;;14.38;9.80;;;;;;;;;;5033775;28;20064;-79
2022/10/31 12:58:21;;;;;;;15.68;9.63;;;;;;;;;;5033317;28;20148;-79
2022/10/31 13:00:51;;;;;;;15.40;8.90;;;;;;;;;;5048899;28;20017;-79
2022/10/31 13:03:23;;;;;;;15.55;10.27;;;;;;;;;;5048941;28;20022;-79
2022/10/31 13:05:52;;;;;;;14.02;9.02;;;;;;;;;;5048758;28;20036;-79
2022/10/31 13:08:20;;;;;;;16.45;10.20;;;;;;;;;;5033663;28;20470;-80
2022/10/31 13:10:53;;;;;;;18.60;9.88;;;;;;;;;;5048520;28;20119;-79
2022/10/31 13:13:19;;;;;;;;;;;;;;;;;;5048886;28;20021;-80
2022/10/31 13:15:50;;;;;;;17.33;10.88;;;;;;;;;;5015686;28;19905;-80
2022/10/31 13:18:23;;;;;;;20.10;13.10;;;;;;;;;;5036364;28;20092;-80
2022/10/31 13:20:50;;;;;;;17.83;10.60;;;;;;;;;;5052190;28;20036;-80
2022/10/31 13:23:29;;;;;;;16.80;10.27;;;;;;;;;;5037308;28;20017;-80
2022/10/31 13:25:58;;;;;;;23.33;11.75;;;;;;;;;;5052661;28;20028;-79
2022/10/31 13:28:43;;;;;;;19.38;11.10;;;;;;;;;;5036862;28;20017;-79
2022/10/31 13:31:09;;;;;;;13.55;10.02;;;;;;;;;;5052342;28;20021;-80
2022/10/31 13:33:50;;;;;;;18.30;11.63;;;;;;;;;;5036647;28;20089;-80
2022/10/31 13:36:25;;;;;;;17.25;10.10;;;;;;;;;;5036705;28;20025;-80
2022/10/31 13:38:54;;;;;;;15.00;10.93;;;;;;;;;;5052279;28;20025;-80
2022/10/31 13:41:39;;;;;;;22.23;11.90;;;;;;;;;;5036581;28;20017;-79
2022/10/31 13:44:25;;;;;;;16.30;9.70;;;;;;;;;;5052074;28;20060;-79
2022/10/31 13:46:51;;;;;;;22.75;11.30;;;;;;;;;;5052020;28;20379;-79
2022/10/31 13:49:30;;;;;;;28.83;14.93;;;;;;;;;;5051532;28;20467;-79
2022/10/31 13:52:11;;;;;;;22.63;12.77;;;;;;;;;;5051946;28;20021;-79
2022/10/31 13:54:55;;;;;;;25.17;12.18;;;;;;;;;;5051424;28;20054;-79
2022/10/31 13:57:43;;;;;;;21.35;13.15;;;;;;;;;;5036303;28;20450;-80
2022/10/31 14:00:21;;;;;;;23.40;12.95;;;;;;;;;;5051714;28;20379;-78
2022/10/31 14:02:49;;;;;;;21.70;12.35;;;;;;;;;;5050940;28;20029;-80
2022/10/31 14:05:18;;;;;;;25.13;12.88;;;;;;;;;;5051572;28;20057;-78
2022/10/31 14:07:45;;;;;;;27.85;12.88;;;;;;;;;;5051541;28;20356;-79
2022/10/31 14:10:23;;;;;;;20.50;12.50;;;;;;;;;;5051120;28;20026;-79